^^
Datos históricos de la estación: Murcia-Puente Tocinos
Diario Informe para Enero 20, 2022 Unidades:  Ambas    Ingés   Métrico
Diario Semanal Mensual Anual
  Máxima: Mínima: Promedio:
Temperatura: 57 °F /  13.9 °C 36.7 °F /  2.6 °C 45.9 °F /  7.7 °C
Punto de rocio: 43.2 °F /  6.2 °C 32.4 °F /  0.2 °C 37.2 °F /  2.9 °C
Humedad: 85% 52% 73%
Velocidad viento: 7.4mph /  11.9km/h - 3.7mph /  6km/h
Racha viento: 12.7mph /  20.4km/h - -
Viento- - SSE
Presión: 30.4 in /  1028.8 hPa 30.2 in /  1023.8 hPa -
Precipitación: 0 in /  0.0 mm    
 
 
Tabla de datos para Enero 20, 2022
Hora Temperatura Punto de rocio Presión Viento Velocidad viento Racha viento Humedad Intensidad lluvia(por hora) Nubes
00:04 43.9 °F /  6.6 °C 37.6 °F /  3.1 °C 30.4in /  1028.8hPa SO 2.9mph /  4.7km/h 4.6mph /  7.4km/h 78% 0in /  0.0mm
00:09 43.9 °F /  6.6 °C 37.6 °F /  3.1 °C 30.4in /  1028.8hPa SO 2.8mph /  4.5km/h 4.6mph /  7.4km/h 78% 0in /  0.0mm
00:14 43.9 °F /  6.6 °C 37.6 °F /  3.1 °C 30.4in /  1028.8hPa SSO 2.4mph /  3.9km/h 4.6mph /  7.4km/h 78% 0in /  0.0mm
00:19 43.9 °F /  6.6 °C 37.6 °F /  3.1 °C 30.4in /  1028.8hPa SSO 2.4mph /  3.8km/h 3.6mph /  5.8km/h 78% 0in /  0.0mm
00:24 43.9 °F /  6.6 °C 37.4 °F /  3 °C 30.4in /  1028.8hPa SO 2mph /  3.2km/h 3.5mph /  5.6km/h 78% 0in /  0.0mm
00:29 43.7 °F /  6.5 °C 37.2 °F /  2.9 °C 30.4in /  1028.8hPa SSO 2mph /  3.2km/h 4.6mph /  7.4km/h 78% 0in /  0.0mm
00:34 43.3 °F /  6.3 °C 37 °F /  2.8 °C 30.4in /  1028.8hPa SSE 2mph /  3.2km/h 5.2mph /  8.4km/h 78% 0in /  0.0mm
00:39 43.2 °F /  6.2 °C 36.9 °F /  2.7 °C 30.4in /  1028.8hPa SE 2.2mph /  3.5km/h 5.2mph /  8.4km/h 78% 0in /  0.0mm
00:44 43 °F /  6.1 °C 36.7 °F /  2.6 °C 30.4in /  1028.7hPa SE 3.1mph /  5km/h 4.6mph /  7.4km/h 78% 0in /  0.0mm
00:49 42.8 °F /  6 °C 36.3 °F /  2.4 °C 30.4in /  1028.7hPa SSE 2.9mph /  4.7km/h 3.5mph /  5.6km/h 78% 0in /  0.0mm
00:54 42.4 °F /  5.8 °C 36.5 °F /  2.5 °C 30.4in /  1028.8hPa SSE 2mph /  3.2km/h 2.4mph /  3.9km/h 78.9% 0in /  0.0mm
00:59 42.4 °F /  5.8 °C 36.3 °F /  2.4 °C 30.4in /  1028.8hPa SSE 1.9mph /  3km/h 2.9mph /  4.7km/h 79% 0in /  0.0mm
01:04 42.4 °F /  5.8 °C 36.3 °F /  2.4 °C 30.4in /  1028.8hPa SSE 1.4mph /  2.3km/h 4mph /  6.4km/h 79% 0in /  0.0mm
01:09 42.3 °F /  5.7 °C 36.3 °F /  2.4 °C 30.4in /  1028.8hPa SE 1.6mph /  2.5km/h 5.2mph /  8.4km/h 79.1% 0in /  0.0mm
01:14 42.1 °F /  5.6 °C 36.1 °F /  2.3 °C 30.4in /  1028.6hPa SSE 2.4mph /  3.9km/h 4.7mph /  7.6km/h 79% 0in /  0.0mm
01:19 41.7 °F /  5.4 °C 35.8 °F /  2.1 °C 30.4in /  1028.6hPa SSE 2.5mph /  4km/h 5.2mph /  8.4km/h 79.1% 0in /  0.0mm
01:24 41.5 °F /  5.3 °C 35.8 °F /  2.1 °C 30.4in /  1028.6hPa SSE 2.9mph /  4.7km/h 4.7mph /  7.6km/h 80% 0in /  0.0mm
01:29 41.2 °F /  5.1 °C 35.6 °F /  2 °C 30.4in /  1028.6hPa Sur 3mph /  4.8km/h 5.9mph /  9.5km/h 80.3% 0in /  0.0mm
01:34 41.2 °F /  5.1 °C 35.8 °F /  2.1 °C 30.4in /  1028.6hPa SSE 3.6mph /  5.8km/h 5.2mph /  8.4km/h 81% 0in /  0.0mm
01:39 40.8 °F /  4.9 °C 35.4 °F /  1.9 °C 30.4in /  1028.6hPa Sur 3.6mph /  5.8km/h 5.8mph /  9.3km/h 81% 0in /  0.0mm
01:44 40.8 °F /  4.9 °C 35.4 °F /  1.9 °C 30.4in /  1028.4hPa SSE 3.6mph /  5.8km/h 4.7mph /  7.6km/h 81% 0in /  0.0mm
01:49 40.8 °F /  4.9 °C 35.4 °F /  1.9 °C 30.4in /  1028.4hPa SSE 3.6mph /  5.8km/h 5.9mph /  9.5km/h 81% 0in /  0.0mm
01:54 40.6 °F /  4.8 °C 35.2 °F /  1.8 °C 30.4in /  1028.5hPa SSE 3.6mph /  5.8km/h 5.8mph /  9.3km/h 81% 0in /  0.0mm
01:59 40.5 °F /  4.7 °C 35.1 °F /  1.7 °C 30.4in /  1028.5hPa SSE 3.7mph /  5.9km/h 6.9mph /  11.1km/h 81% 0in /  0.0mm
02:04 40.1 °F /  4.5 °C 34.9 °F /  1.6 °C 30.4in /  1028.5hPa Sur 4mph /  6.4km/h 6.9mph /  11.1km/h 81.6% 0in /  0.0mm
02:09 39.9 °F /  4.4 °C 34.9 °F /  1.6 °C 30.4in /  1028.5hPa Sur 4.1mph /  6.6km/h 6.2mph /  10km/h 82.1% 0in /  0.0mm
02:14 39.9 °F /  4.4 °C 35.2 °F /  1.8 °C 30.4in /  1028.3hPa Sur 4.7mph /  7.6km/h 5.9mph /  9.5km/h 83% 0in /  0.0mm
02:19 39.9 °F /  4.4 °C 35.2 °F /  1.8 °C 30.4in /  1028.3hPa Sur 4.7mph /  7.5km/h 6.2mph /  10km/h 83% 0in /  0.0mm
02:24 39.9 °F /  4.4 °C 35.2 °F /  1.8 °C 30.4in /  1028.3hPa SSO 4.3mph /  6.9km/h 6.2mph /  10km/h 82.8% 0in /  0.0mm
02:29 40.3 °F /  4.6 °C 35.4 °F /  1.9 °C 30.4in /  1028.3hPa SSO 4.3mph /  7km/h 8.1mph /  13km/h 82.9% 0in /  0.0mm
02:34 40.5 °F /  4.7 °C 35.4 °F /  1.9 °C 30.4in /  1028.3hPa SSO 4.7mph /  7.6km/h 7.4mph /  11.9km/h 82% 0in /  0.0mm
02:39 40.6 °F /  4.8 °C 35.4 °F /  1.9 °C 30.4in /  1028.3hPa SO 4.7mph /  7.5km/h 6.2mph /  10km/h 81.4% 0in /  0.0mm
02:44 40.6 °F /  4.8 °C 35.2 °F /  1.8 °C 30.4in /  1028.3hPa OSO 4.3mph /  6.9km/h 6.9mph /  11.1km/h 81% 0in /  0.0mm
02:49 40.6 °F /  4.8 °C 35.1 °F /  1.7 °C 30.4in /  1028.3hPa SO 4.2mph /  6.7km/h 5.8mph /  9.3km/h 80.5% 0in /  0.0mm
02:54 40.6 °F /  4.8 °C 35.1 °F /  1.7 °C 30.4in /  1028.3hPa SO 3.6mph /  5.8km/h 5.8mph /  9.3km/h 80% 0in /  0.0mm
02:59 40.6 °F /  4.8 °C 35.1 °F /  1.7 °C 30.4in /  1028.3hPa SSO 3.7mph /  5.9km/h 5.9mph /  9.5km/h 80% 0in /  0.0mm
03:04 40.8 °F /  4.9 °C 35.1 °F /  1.7 °C 30.4in /  1028.3hPa SSO 4mph /  6.4km/h 6.9mph /  11.1km/h 80% 0in /  0.0mm
03:09 40.8 °F /  4.9 °C 35.1 °F /  1.7 °C 30.4in /  1028.3hPa Sur 4.1mph /  6.6km/h 6.2mph /  10km/h 80% 0in /  0.0mm
03:14 40.8 °F /  4.9 °C 35.1 °F /  1.7 °C 30.4in /  1028.1hPa Sur 4.7mph /  7.6km/h 6.9mph /  11.1km/h 80% 0in /  0.0mm
03:19 41 °F /  5 °C 35.2 °F /  1.8 °C 30.4in /  1028.1hPa Sur 4.7mph /  7.6km/h 7.4mph /  11.9km/h 80% 0in /  0.0mm
03:24 41.2 °F /  5.1 °C 35.4 °F /  1.9 °C 30.4in /  1028.1hPa Sur 4.7mph /  7.6km/h 6.9mph /  11.1km/h 79.8% 0in /  0.0mm
03:29 40.8 °F /  4.9 °C 34.9 °F /  1.6 °C 30.4in /  1028.1hPa SSE 4.6mph /  7.4km/h 6.2mph /  10km/h 79% 0in /  0.0mm
03:34 40.5 °F /  4.7 °C 34.5 °F /  1.4 °C 30.4in /  1028.1hPa SSE 4mph /  6.4km/h 6.2mph /  10km/h 79% 0in /  0.0mm
03:39 40.1 °F /  4.5 °C 34.3 °F /  1.3 °C 30.4in /  1028.1hPa SSE 4mph /  6.4km/h 5.9mph /  9.5km/h 79.8% 0in /  0.0mm
03:44 39.7 °F /  4.3 °C 34 °F /  1.1 °C 30.4in /  1028.0hPa SSE 4mph /  6.4km/h 7.4mph /  11.9km/h 80.1% 0in /  0.0mm
03:49 39.2 °F /  4 °C 34 °F /  1.1 °C 30.4in /  1028.0hPa SSE 4.2mph /  6.7km/h 8.1mph /  13km/h 81.2% 0in /  0.0mm
03:54 39 °F /  3.9 °C 34 °F /  1.1 °C 30.4in /  1028.1hPa SSE 5.2mph /  8.4km/h 8.1mph /  13km/h 82% 0in /  0.0mm
03:59 38.8 °F /  3.8 °C 34 °F /  1.1 °C 30.4in /  1028.1hPa Sur 5.2mph /  8.4km/h 7.4mph /  11.9km/h 82.8% 0in /  0.0mm
04:04 38.8 °F /  3.8 °C 34.2 °F /  1.2 °C 30.4in /  1028.1hPa Sur 5.2mph /  8.4km/h 8.1mph /  13km/h 83% 0in /  0.0mm
04:09 39 °F /  3.9 °C 34.3 °F /  1.3 °C 30.4in /  1028.1hPa SSO 5.2mph /  8.4km/h 8.5mph /  13.7km/h 83% 0in /  0.0mm
04:14 39.2 °F /  4 °C 34.5 °F /  1.4 °C 30.4in /  1027.9hPa SSO 5.4mph /  8.7km/h 8.1mph /  13km/h 83% 0in /  0.0mm
04:19 39.4 °F /  4.1 °C 34.3 °F /  1.3 °C 30.4in /  1027.9hPa SSO 5.3mph /  8.6km/h 8.1mph /  13km/h 82.4% 0in /  0.0mm
04:24 39.4 °F /  4.1 °C 34.3 °F /  1.3 °C 30.4in /  1027.9hPa SSO 5.2mph /  8.4km/h 8.5mph /  13.7km/h 82% 0in /  0.0mm
04:29 39.4 °F /  4.1 °C 34.3 °F /  1.3 °C 30.4in /  1027.9hPa SSO 5.2mph /  8.4km/h 8.1mph /  13km/h 82% 0in /  0.0mm
04:34 39.4 °F /  4.1 °C 34.3 °F /  1.3 °C 30.4in /  1027.9hPa SSO 5.4mph /  8.7km/h 9.2mph /  14.8km/h 82% 0in /  0.0mm
04:39 39.4 °F /  4.1 °C 34.3 °F /  1.3 °C 30.4in /  1027.9hPa SSO 5.5mph /  8.8km/h 9.2mph /  14.8km/h 82% 0in /  0.0mm
04:44 39.4 °F /  4.1 °C 34 °F /  1.1 °C 30.4in /  1027.8hPa Sur 5.9mph /  9.5km/h 9.2mph /  14.8km/h 81.1% 0in /  0.0mm
04:49 39.2 °F /  4 °C 34 °F /  1.1 °C 30.4in /  1027.8hPa SSO 5.9mph /  9.5km/h 8.1mph /  13km/h 81% 0in /  0.0mm
04:54 39.2 °F /  4 °C 34 °F /  1.1 °C 30.4in /  1027.8hPa SSO 5.9mph /  9.5km/h 6.9mph /  11.1km/h 81.1% 0in /  0.0mm
04:59 39.2 °F /  4 °C 34 °F /  1.1 °C 30.4in /  1027.8hPa SO 5.5mph /  8.9km/h 6.2mph /  10km/h 81% 0in /  0.0mm
05:04 39.4 °F /  4.1 °C 34 °F /  1.1 °C 30.4in /  1027.8hPa Sur 4mph /  6.4km/h 6.2mph /  10km/h 81% 0in /  0.0mm
05:09 39.2 °F /  4 °C 33.8 °F /  1 °C 30.4in /  1027.8hPa Sur 3.9mph /  6.3km/h 5.2mph /  8.4km/h 81% 0in /  0.0mm
05:14 39 °F /  3.9 °C 33.6 °F /  0.9 °C 30.3in /  1027.6hPa SSE 3.6mph /  5.8km/h 5.2mph /  8.4km/h 81% 0in /  0.0mm
05:19 38.8 °F /  3.8 °C 33.4 °F /  0.8 °C 30.3in /  1027.6hPa Sur 3.6mph /  5.8km/h 5.8mph /  9.3km/h 81% 0in /  0.0mm
05:24 38.7 °F /  3.7 °C 33.4 °F /  0.8 °C 30.3in /  1027.6hPa Sur 3.6mph /  5.8km/h 5.8mph /  9.3km/h 81.4% 0in /  0.0mm
05:29 38.5 °F /  3.6 °C 33.4 °F /  0.8 °C 30.3in /  1027.5hPa Sur 3.6mph /  5.8km/h 5.2mph /  8.4km/h 82% 0in /  0.0mm
05:34 38.5 °F /  3.6 °C 33.4 °F /  0.8 °C 30.3in /  1027.5hPa Sur 3.6mph /  5.8km/h 5.2mph /  8.4km/h 82% 0in /  0.0mm
05:39 38.3 °F /  3.5 °C 33.4 °F /  0.8 °C 30.3in /  1027.5hPa Sur 3.6mph /  5.8km/h 5.2mph /  8.4km/h 82.5% 0in /  0.0mm
05:44 38.3 °F /  3.5 °C 33.6 °F /  0.9 °C 30.3in /  1027.5hPa SSE 3.6mph /  5.8km/h 5.2mph /  8.4km/h 83% 0in /  0.0mm
05:49 38.1 °F /  3.4 °C 33.4 °F /  0.8 °C 30.3in /  1027.5hPa SSE 3.6mph /  5.8km/h 5.9mph /  9.5km/h 83% 0in /  0.0mm
05:54 37.9 °F /  3.3 °C 33.3 °F /  0.7 °C 30.3in /  1027.5hPa SSE 3.6mph /  5.8km/h 5.4mph /  8.7km/h 83% 0in /  0.0mm
05:59 37.9 °F /  3.3 °C 33.1 °F /  0.6 °C 30.3in /  1027.5hPa SSE 3.7mph /  5.9km/h 5.9mph /  9.5km/h 83% 0in /  0.0mm
06:04 37.8 °F /  3.2 °C 33.3 °F /  0.7 °C 30.3in /  1027.5hPa SSE 4mph /  6.4km/h 5.9mph /  9.5km/h 83.5% 0in /  0.0mm
06:09 37.8 °F /  3.2 °C 33.3 °F /  0.7 °C 30.3in /  1027.5hPa Sur 4mph /  6.4km/h 6.2mph /  10km/h 84% 0in /  0.0mm
06:14 37.6 °F /  3.1 °C 33.3 °F /  0.7 °C 30.3in /  1027.5hPa SSE 4mph /  6.4km/h 6.9mph /  11.1km/h 84% 0in /  0.0mm
06:19 37.4 °F /  3 °C 33.1 °F /  0.6 °C 30.3in /  1027.5hPa Sur 4mph /  6.5km/h 6.9mph /  11.1km/h 84% 0in /  0.0mm
06:24 37.6 °F /  3.1 °C 33.1 °F /  0.6 °C 30.3in /  1027.5hPa Sur 4.3mph /  6.9km/h 6.2mph /  10km/h 84% 0in /  0.0mm
06:29 37.6 °F /  3.1 °C 33.1 °F /  0.6 °C 30.3in /  1027.5hPa SSO 4.3mph /  6.9km/h 5.8mph /  9.3km/h 84.1% 0in /  0.0mm
06:34 37.6 °F /  3.1 °C 33.4 °F /  0.8 °C 30.3in /  1027.5hPa Sur 4mph /  6.4km/h 5.2mph /  8.4km/h 85% 0in /  0.0mm
06:39 37.6 °F /  3.1 °C 33.4 °F /  0.8 °C 30.4in /  1027.7hPa SSO 3.9mph /  6.3km/h 4.7mph /  7.6km/h 85% 0in /  0.0mm
06:44 37.6 °F /  3.1 °C 33.4 °F /  0.8 °C 30.4in /  1027.7hPa SO 3.6mph /  5.8km/h 4.6mph /  7.4km/h 85% 0in /  0.0mm
06:49 37.8 °F /  3.2 °C 33.6 °F /  0.9 °C 30.4in /  1027.7hPa SSO 3.5mph /  5.6km/h 4.6mph /  7.4km/h 84.6% 0in /  0.0mm
06:54 37.8 °F /  3.2 °C 33.4 °F /  0.8 °C 30.4in /  1027.8hPa Sur 2.9mph /  4.7km/h 4.6mph /  7.4km/h 84% 0in /  0.0mm
06:59 37.8 °F /  3.2 °C 33.4 °F /  0.8 °C 30.4in /  1027.8hPa Sur 2.9mph /  4.7km/h 4.6mph /  7.4km/h 84% 0in /  0.0mm
07:04 37.8 °F /  3.2 °C 33.3 °F /  0.7 °C 30.4in /  1027.8hPa SSE 2.9mph /  4.7km/h 5.9mph /  9.5km/h 84% 0in /  0.0mm
07:09 37.6 °F /  3.1 °C 33.3 °F /  0.7 °C 30.4in /  1027.8hPa SSE 2.9mph /  4.7km/h 5.4mph /  8.7km/h 84% 0in /  0.0mm
07:14 37.4 °F /  3 °C 33.1 °F /  0.6 °C 30.4in /  1027.8hPa SSE 3.1mph /  5km/h 5.8mph /  9.3km/h 84% 0in /  0.0mm
07:19 37.2 °F /  2.9 °C 32.9 °F /  0.5 °C 30.4in /  1027.8hPa Sur 3.2mph /  5.1km/h 5.2mph /  8.4km/h 84% 0in /  0.0mm
07:24 37.2 °F /  2.9 °C 32.7 °F /  0.4 °C 30.4in /  1027.9hPa Sur 3.6mph /  5.8km/h 6.2mph /  10km/h 84% 0in /  0.0mm
07:29 37.2 °F /  2.9 °C 32.7 °F /  0.4 °C 30.4in /  1027.9hPa Sur 3.6mph /  5.8km/h 5.8mph /  9.3km/h 84% 0in /  0.0mm
07:34 37.2 °F /  2.9 °C 32.7 °F /  0.4 °C 30.4in /  1027.9hPa SSE 3.6mph /  5.8km/h 5.2mph /  8.4km/h 84% 0in /  0.0mm
07:39 37 °F /  2.8 °C 32.7 °F /  0.4 °C 30.4in /  1027.9hPa SSE 3.6mph /  5.8km/h 4.7mph /  7.6km/h 84% 0in /  0.0mm
07:44 37 °F /  2.8 °C 32.7 °F /  0.4 °C 30.4in /  1027.7hPa Sur 3.6mph /  5.8km/h 5.8mph /  9.3km/h 84% 0in /  0.0mm
07:49 37 °F /  2.8 °C 32.7 °F /  0.4 °C 30.4in /  1027.7hPa Sur 3.5mph /  5.7km/h 4.6mph /  7.4km/h 84% 0in /  0.0mm
07:54 37 °F /  2.8 °C 32.7 °F /  0.4 °C 30.4in /  1027.7hPa Sur 3.1mph /  5km/h 3.6mph /  5.8km/h 84.2% 0in /  0.0mm
07:59 37 °F /  2.8 °C 32.9 °F /  0.5 °C 30.4in /  1027.7hPa SO 3mph /  4.8km/h 4.7mph /  7.6km/h 85% 0in /  0.0mm
08:00 37 °F /  2.8 °C 32.9 °F /  0.5 °C 30.4in /  1027.7hPa SO 2.4mph /  3.9km/h 3.6mph /  5.8km/h 85% 0in /  0.0mm
08:19 37.2 °F /  2.9 °C 32.7 °F /  0.4 °C 30.3in /  1027.6hPa SSE 3mph /  4.8km/h 4.3mph /  6.9km/h 83.2% 0in /  0.0mm
08:24 37.2 °F /  2.9 °C 32.5 °F /  0.3 °C 30.3in /  1027.6hPa SSE 3.1mph /  5km/h 6.9mph /  11.1km/h 83% 0in /  0.0mm
08:29 37 °F /  2.8 °C 32.5 °F /  0.3 °C 30.3in /  1027.4hPa Sur 3.2mph /  5.2km/h 6.9mph /  11.1km/h 83.6% 0in /  0.0mm
08:34 36.9 °F /  2.7 °C 32.5 °F /  0.3 °C 30.3in /  1027.4hPa SSE 4.3mph /  6.9km/h 6.4mph /  10.3km/h 84% 0in /  0.0mm
08:39 36.7 °F /  2.6 °C 32.4 °F /  0.2 °C 30.3in /  1027.5hPa SSE 4.3mph /  6.9km/h 6.9mph /  11.1km/h 84% 0in /  0.0mm
08:44 36.7 °F /  2.6 °C 32.5 °F /  0.3 °C 30.3in /  1027.5hPa Sur 4mph /  6.4km/h 4.7mph /  7.6km/h 84.9% 0in /  0.0mm
08:49 36.7 °F /  2.6 °C 32.5 °F /  0.3 °C 30.3in /  1027.5hPa Sur 3.9mph /  6.2km/h 5.4mph /  8.7km/h 85% 0in /  0.0mm
08:54 36.9 °F /  2.7 °C 32.7 °F /  0.4 °C 30.4in /  1027.8hPa SSO 3.1mph /  5km/h 5.8mph /  9.3km/h 85% 0in /  0.0mm
08:59 36.9 °F /  2.7 °C 32.7 °F /  0.4 °C 30.4in /  1027.8hPa SSO 3.2mph /  5.1km/h 5.8mph /  9.3km/h 84.9% 0in /  0.0mm
09:04 36.9 °F /  2.7 °C 32.5 °F /  0.3 °C 30.4in /  1027.8hPa Sur 3.6mph /  5.8km/h 6.2mph /  10km/h 84% 0in /  0.0mm
09:09 37 °F /  2.8 °C 32.7 °F /  0.4 °C 30.4in /  1028.1hPa Sur 3.6mph /  5.8km/h 6.2mph /  10km/h 84% 0in /  0.0mm
09:14 37 °F /  2.8 °C 32.7 °F /  0.4 °C 30.4in /  1028.1hPa Sur 3.6mph /  5.8km/h 5.9mph /  9.5km/h 84% 0in /  0.0mm
09:19 37 °F /  2.8 °C 32.7 °F /  0.4 °C 30.4in /  1028.1hPa Sur 3.7mph /  6km/h 6.9mph /  11.1km/h 83.9% 0in /  0.0mm
09:24 37.2 °F /  2.9 °C 32.5 °F /  0.3 °C 30.4in /  1028.3hPa Sur 4.3mph /  6.9km/h 6.9mph /  11.1km/h 83% 0in /  0.0mm
09:29 37.2 °F /  2.9 °C 32.5 °F /  0.3 °C 30.4in /  1028.3hPa Sur 4.3mph /  6.9km/h 6.9mph /  11.1km/h 83% 0in /  0.0mm
09:34 37.6 °F /  3.1 °C 32.7 °F /  0.4 °C 30.4in /  1028.3hPa SSO 4.3mph /  6.9km/h 8.5mph /  13.7km/h 82.8% 0in /  0.0mm
09:39 37.8 °F /  3.2 °C 32.7 °F /  0.4 °C 30.4in /  1028.3hPa Sur 4.3mph /  7km/h 6.4mph /  10.3km/h 82% 0in /  0.0mm
09:44 37.9 °F /  3.3 °C 32.7 °F /  0.4 °C 30.4in /  1028.3hPa Sur 4.7mph /  7.6km/h 9.2mph /  14.8km/h 81.3% 0in /  0.0mm
09:49 37.8 °F /  3.2 °C 32.5 °F /  0.3 °C 30.4in /  1028.3hPa SSE 4.8mph /  7.8km/h 8.5mph /  13.7km/h 81% 0in /  0.0mm
09:54 37.6 °F /  3.1 °C 32.5 °F /  0.3 °C 30.4in /  1028.3hPa SSE 5.9mph /  9.5km/h 9.7mph /  15.6km/h 81.9% 0in /  0.0mm
09:59 37.4 °F /  3 °C 32.5 °F /  0.3 °C 30.4in /  1028.1hPa Sur 6mph /  9.6km/h 9.2mph /  14.8km/h 82.5% 0in /  0.0mm
10:04 37.6 °F /  3.1 °C 32.9 °F /  0.5 °C 30.4in /  1028.1hPa Sur 6.4mph /  10.3km/h 8.5mph /  13.7km/h 83% 0in /  0.0mm
10:09 37.9 °F /  3.3 °C 32.9 °F /  0.5 °C 30.4in /  1028.4hPa Sur 6.3mph /  10.2km/h 9.2mph /  14.8km/h 82.3% 0in /  0.0mm
10:14 38.1 °F /  3.4 °C 33.1 °F /  0.6 °C 30.4in /  1028.4hPa SSO 5.9mph /  9.5km/h 8.1mph /  13km/h 81.6% 0in /  0.0mm
10:19 38.7 °F /  3.7 °C 33.3 °F /  0.7 °C 30.4in /  1028.4hPa SSO 5.7mph /  9.2km/h 6.9mph /  11.1km/h 81% 0in /  0.0mm
10:24 39 °F /  3.9 °C 33.4 °F /  0.8 °C 30.4in /  1028.5hPa SSO 4.7mph /  7.6km/h 6.2mph /  10km/h 80.2% 0in /  0.0mm
10:29 39.6 °F /  4.2 °C 33.8 °F /  1 °C 30.4in /  1028.5hPa SO 4.6mph /  7.4km/h 5.9mph /  9.5km/h 79.5% 0in /  0.0mm
10:34 39.9 °F /  4.4 °C 33.6 °F /  0.9 °C 30.4in /  1028.5hPa SO 4mph /  6.4km/h 6.9mph /  11.1km/h 78.1% 0in /  0.0mm
10:39 40.5 °F /  4.7 °C 33.8 °F /  1 °C 30.4in /  1028.6hPa SO 4mph /  6.4km/h 6.2mph /  10km/h 77.2% 0in /  0.0mm
10:44 40.8 °F /  4.9 °C 33.8 °F /  1 °C 30.4in /  1028.6hPa OSO 3.6mph /  5.8km/h 5.2mph /  8.4km/h 76.1% 0in /  0.0mm
10:49 41.4 °F /  5.2 °C 34 °F /  1.1 °C 30.4in /  1028.6hPa SO 3.5mph /  5.6km/h 5.9mph /  9.5km/h 74.7% 0in /  0.0mm
10:54 41.9 °F /  5.5 °C 34.2 °F /  1.2 °C 30.4in /  1028.6hPa SSO 2.9mph /  4.7km/h 5.4mph /  8.7km/h 73.8% 0in /  0.0mm
10:59 42.4 °F /  5.8 °C 34.2 °F /  1.2 °C 30.4in /  1028.6hPa SSO 3mph /  4.9km/h 5.9mph /  9.5km/h 72.4% 0in /  0.0mm
11:04 43.2 °F /  6.2 °C 34.5 °F /  1.4 °C 30.4in /  1028.6hPa Sur 3.6mph /  5.8km/h 6.9mph /  11.1km/h 71.3% 0in /  0.0mm
11:09 43.5 °F /  6.4 °C 34.2 °F /  1.2 °C 30.4in /  1028.6hPa SSO 3.7mph /  6km/h 5.9mph /  9.5km/h 69.5% 0in /  0.0mm
11:14 43.9 °F /  6.6 °C 34.3 °F /  1.3 °C 30.4in /  1028.5hPa SSO 4.3mph /  6.9km/h 5.2mph /  8.4km/h 69% 0in /  0.0mm
11:19 44.1 °F /  6.7 °C 34 °F /  1.1 °C 30.4in /  1028.5hPa SO 4.2mph /  6.8km/h 5.9mph /  9.5km/h 67.5% 0in /  0.0mm
11:24 44.2 °F /  6.8 °C 34 °F /  1.1 °C 30.4in /  1028.6hPa OSO 3.6mph /  5.8km/h 6.9mph /  11.1km/h 67% 0in /  0.0mm
11:29 44.6 °F /  7 °C 34.3 °F /  1.3 °C 30.4in /  1028.6hPa SSO 3.6mph /  5.8km/h 6.9mph /  11.1km/h 67% 0in /  0.0mm
11:34 45 °F /  7.2 °C 34.3 °F /  1.3 °C 30.4in /  1028.6hPa SSO 3.6mph /  5.8km/h 6.9mph /  11.1km/h 66% 0in /  0.0mm
11:39 45.3 °F /  7.4 °C 34.3 °F /  1.3 °C 30.4in /  1028.6hPa Sur 3.7mph /  5.9km/h 8.1mph /  13km/h 65.1% 0in /  0.0mm
11:44 45.7 °F /  7.6 °C 34.5 °F /  1.4 °C 30.4in /  1028.3hPa Sur 4.3mph /  6.9km/h 7.4mph /  11.9km/h 64.6% 0in /  0.0mm
11:49 46 °F /  7.8 °C 34.5 °F /  1.4 °C 30.4in /  1028.3hPa SSO 4.3mph /  7km/h 6.9mph /  11.1km/h 64.2% 0in /  0.0mm
11:54 46.2 °F /  7.9 °C 34.7 °F /  1.5 °C 30.4in /  1028.3hPa Sur 4.7mph /  7.6km/h 6.2mph /  10km/h 64% 0in /  0.0mm
11:59 46.8 °F /  8.2 °C 34.9 °F /  1.6 °C 30.4in /  1028.1hPa SSO 4.6mph /  7.4km/h 7.4mph /  11.9km/h 63.1% 0in /  0.0mm
12:04 46.9 °F /  8.3 °C 34.9 °F /  1.6 °C 30.4in /  1028.1hPa SSO 4mph /  6.4km/h 7.4mph /  11.9km/h 63% 0in /  0.0mm
12:09 46.8 °F /  8.2 °C 34.9 °F /  1.6 °C 30.4in /  1028.1hPa SSO 4mph /  6.5km/h 6.9mph /  11.1km/h 63.1% 0in /  0.0mm
12:14 46.9 °F /  8.3 °C 35.2 °F /  1.8 °C 30.4in /  1027.9hPa SSO 4.3mph /  6.9km/h 8.5mph /  13.7km/h 63.2% 0in /  0.0mm
12:19 47.5 °F /  8.6 °C 35.2 °F /  1.8 °C 30.4in /  1027.9hPa Sur 4.3mph /  6.9km/h 8.7mph /  14km/h 62.3% 0in /  0.0mm
12:24 47.8 °F /  8.8 °C 35.4 °F /  1.9 °C 30.4in /  1027.9hPa Sur 4.3mph /  6.9km/h 9.2mph /  14.8km/h 62% 0in /  0.0mm
12:29 48.4 °F /  9.1 °C 35.8 °F /  2.1 °C 30.4in /  1027.8hPa Sur 4.3mph /  6.9km/h 6.9mph /  11.1km/h 61.3% 0in /  0.0mm
12:34 48.7 °F /  9.3 °C 36 °F /  2.2 °C 30.4in /  1027.8hPa SSO 4.3mph /  6.9km/h 6.9mph /  11.1km/h 60.9% 0in /  0.0mm
12:39 48.9 °F /  9.4 °C 35.8 °F /  2.1 °C 30.4in /  1027.8hPa Sur 4.2mph /  6.8km/h 6.9mph /  11.1km/h 60% 0in /  0.0mm
12:44 49.5 °F /  9.7 °C 36 °F /  2.2 °C 30.3in /  1027.6hPa Sur 4mph /  6.4km/h 6.2mph /  10km/h 59.9% 0in /  0.0mm
12:49 49.6 °F /  9.8 °C 36 °F /  2.2 °C 30.3in /  1027.6hPa SSO 4mph /  6.5km/h 6.9mph /  11.1km/h 59.6% 0in /  0.0mm
12:54 50 °F /  10 °C 36.1 °F /  2.3 °C 30.3in /  1027.6hPa SSE 4.3mph /  6.9km/h 7.6mph /  12.2km/h 59.1% 0in /  0.0mm
12:59 50.4 °F /  10.2 °C 36.1 °F /  2.3 °C 30.3in /  1027.4hPa SSO 4.2mph /  6.7km/h 8.1mph /  13km/h 58.1% 0in /  0.0mm
13:04 50.7 °F /  10.4 °C 36.3 °F /  2.4 °C 30.3in /  1027.4hPa SSO 3.6mph /  5.8km/h 6.9mph /  11.1km/h 57.7% 0in /  0.0mm
13:09 51.1 °F /  10.6 °C 36.7 °F /  2.6 °C 30.3in /  1027.4hPa SSE 3.6mph /  5.8km/h 5.8mph /  9.3km/h 57.7% 0in /  0.0mm
13:14 51.6 °F /  10.9 °C 36.9 °F /  2.7 °C 30.3in /  1026.8hPa SSO 3.6mph /  5.8km/h 5.9mph /  9.5km/h 57% 0in /  0.0mm
13:19 52 °F /  11.1 °C 37.2 °F /  2.9 °C 30.3in /  1026.8hPa SSO 3.6mph /  5.8km/h 6.2mph /  10km/h 57% 0in /  0.0mm
13:24 52.2 °F /  11.2 °C 37.4 °F /  3 °C 30.3in /  1026.8hPa SO 3.6mph /  5.8km/h 5.9mph /  9.5km/h 57% 0in /  0.0mm
13:29 52.3 °F /  11.3 °C 37.6 °F /  3.1 °C 30.3in /  1026.5hPa SSE 3.6mph /  5.8km/h 5.8mph /  9.3km/h 57% 0in /  0.0mm
13:34 52.9 °F /  11.6 °C 37.6 °F /  3.1 °C 30.3in /  1026.5hPa ESE 3.6mph /  5.8km/h 6.9mph /  11.1km/h 56.1% 0in /  0.0mm
13:39 53.1 °F /  11.7 °C 37.9 °F /  3.3 °C 30.3in /  1026.5hPa SSE 3.5mph /  5.7km/h 5.4mph /  8.7km/h 56.4% 0in /  0.0mm
13:44 53.4 °F /  11.9 °C 38.3 °F /  3.5 °C 30.3in /  1026.2hPa SE 3.1mph /  5km/h 5.8mph /  9.3km/h 56.4% 0in /  0.0mm
13:49 54 °F /  12.2 °C 38.5 °F /  3.6 °C 30.3in /  1026.2hPa Sur 3mph /  4.9km/h 4.6mph /  7.4km/h 56% 0in /  0.0mm
13:54 54.1 °F /  12.3 °C 38.7 °F /  3.7 °C 30.3in /  1026.2hPa SSO 2.4mph /  3.9km/h 5.8mph /  9.3km/h 55.5% 0in /  0.0mm
13:59 54.3 °F /  12.4 °C 38.7 °F /  3.7 °C 30.3in /  1025.8hPa Oeste 2.5mph /  4km/h 4.6mph /  7.4km/h 55.3% 0in /  0.0mm
14:04 54.3 °F /  12.4 °C 38.5 °F /  3.6 °C 30.3in /  1025.8hPa Oeste 2.9mph /  4.7km/h 4.6mph /  7.4km/h 55% 0in /  0.0mm
14:09 54.3 °F /  12.4 °C 38.7 °F /  3.7 °C 30.3in /  1025.8hPa Oeste 2.8mph /  4.5km/h 3.5mph /  5.6km/h 55.4% 0in /  0.0mm
14:14 54.7 °F /  12.6 °C 39 °F /  3.9 °C 30.3in /  1025.5hPa North 2.4mph /  3.9km/h 6.2mph /  10km/h 55.7% 0in /  0.0mm
14:19 54.9 °F /  12.7 °C 39 °F /  3.9 °C 30.3in /  1025.5hPa NE 2.4mph /  3.9km/h 4.6mph /  7.4km/h 55% 0in /  0.0mm
14:24 55.2 °F /  12.9 °C 39.2 °F /  4 °C 30.3in /  1025.5hPa Este 2.4mph /  3.9km/h 7.4mph /  11.9km/h 54.9% 0in /  0.0mm
14:29 55.6 °F /  13.1 °C 39.4 °F /  4.1 °C 30.3in /  1025.2hPa NE 2.5mph /  4km/h 6.9mph /  11.1km/h 54.3% 0in /  0.0mm
14:34 55.8 °F /  13.2 °C 39.4 °F /  4.1 °C 30.3in /  1025.2hPa NE 3.1mph /  5km/h 6.9mph /  11.1km/h 54% 0in /  0.0mm
14:39 55.9 °F /  13.3 °C 39.6 °F /  4.2 °C 30.3in /  1025.2hPa NE 3.2mph /  5.1km/h 8.1mph /  13km/h 54% 0in /  0.0mm
14:44 56.1 °F /  13.4 °C 39.7 °F /  4.3 °C 30.3in /  1025.0hPa NNE 3.6mph /  5.8km/h 7.4mph /  11.9km/h 54% 0in /  0.0mm
14:49 56.3 °F /  13.5 °C 39.4 °F /  4.1 °C 30.3in /  1025.0hPa NNE 3.5mph /  5.7km/h 6.9mph /  11.1km/h 53.2% 0in /  0.0mm
14:54 56.5 °F /  13.6 °C 39.6 °F /  4.2 °C 30.3in /  1025.0hPa NNE 3.1mph /  5km/h 5.2mph /  8.4km/h 53.3% 0in /  0.0mm
14:59 56.5 °F /  13.6 °C 39.6 °F /  4.2 °C 30.3in /  1024.8hPa NE 3.1mph /  5km/h 6.9mph /  11.1km/h 53% 0in /  0.0mm
15:04 56.5 °F /  13.6 °C 39.6 °F /  4.2 °C 30.3in /  1024.8hPa NE 3.1mph /  5km/h 7.4mph /  11.9km/h 53% 0in /  0.0mm
15:09 56.7 °F /  13.7 °C 39.6 °F /  4.2 °C 30.3in /  1024.8hPa NNE 3.2mph /  5.2km/h 8.1mph /  13km/h 53% 0in /  0.0mm
15:14 56.5 °F /  13.6 °C 39.6 °F /  4.2 °C 30.3in /  1024.5hPa North 4mph /  6.4km/h 8.5mph /  13.7km/h 53% 0in /  0.0mm
15:19 56.5 °F /  13.6 °C 39.6 °F /  4.2 °C 30.3in /  1024.5hPa NE 4.1mph /  6.6km/h 9.2mph /  14.8km/h 53% 0in /  0.0mm
15:24 56.7 °F /  13.7 °C 39.6 °F /  4.2 °C 30.3in /  1024.5hPa NNE 4.7mph /  7.6km/h 8.7mph /  14km/h 53% 0in /  0.0mm
15:29 56.7 °F /  13.7 °C 39.4 °F /  4.1 °C 30.3in /  1024.3hPa NE 4.5mph /  7.3km/h 9.2mph /  14.8km/h 52.3% 0in /  0.0mm
15:34 56.7 °F /  13.7 °C 39.2 °F /  4 °C 30.3in /  1024.3hPa NE 3.6mph /  5.8km/h 5.9mph /  9.5km/h 52% 0in /  0.0mm
15:39 56.7 °F /  13.7 °C 39.2 °F /  4 °C 30.3in /  1024.3hPa North 3.5mph /  5.6km/h 3.6mph /  5.8km/h 52% 0in /  0.0mm
15:44 57 °F /  13.9 °C 39.6 °F /  4.2 °C 30.2in /  1024.0hPa NE 2.9mph /  4.7km/h 7.4mph /  11.9km/h 52% 0in /  0.0mm
15:49 57 °F /  13.9 °C 39.6 °F /  4.2 °C 30.2in /  1024.0hPa NNE 3mph /  4.9km/h 7.4mph /  11.9km/h 52% 0in /  0.0mm
15:54 57 °F /  13.9 °C 39.6 °F /  4.2 °C 30.2in /  1024.0hPa NNE 4mph /  6.4km/h 10.2mph /  16.4km/h 52% 0in /  0.0mm
15:59 56.8 °F /  13.8 °C 39.7 °F /  4.3 °C 30.2in /  1023.9hPa NNE 4.2mph /  6.8km/h 10.4mph /  16.7km/h 52.7% 0in /  0.0mm
16:04 56.8 °F /  13.8 °C 39.9 °F /  4.4 °C 30.2in /  1023.9hPa NNE 5.2mph /  8.4km/h 8.1mph /  13km/h 53% 0in /  0.0mm
16:09 56.8 °F /  13.8 °C 39.9 °F /  4.4 °C 30.2in /  1023.9hPa ENE 5.2mph /  8.4km/h 10.4mph /  16.7km/h 53% 0in /  0.0mm
16:14 56.8 °F /  13.8 °C 39.9 °F /  4.4 °C 30.2in /  1023.8hPa ENE 5.2mph /  8.4km/h 9.7mph /  15.6km/h 53% 0in /  0.0mm
16:19 56.7 °F /  13.7 °C 39.7 °F /  4.3 °C 30.2in /  1023.8hPa NE 5.2mph /  8.4km/h 10.4mph /  16.7km/h 53% 0in /  0.0mm
16:24 56.7 °F /  13.7 °C 39.7 °F /  4.3 °C 30.2in /  1023.8hPa NE 5.4mph /  8.7km/h 9.2mph /  14.8km/h 53% 0in /  0.0mm
16:29 56.7 °F /  13.7 °C 39.9 °F /  4.4 °C 30.2in /  1023.8hPa NE 5.3mph /  8.6km/h 8.1mph /  13km/h 53.6% 0in /  0.0mm
16:34 56.7 °F /  13.7 °C 40.3 °F /  4.6 °C 30.2in /  1023.8hPa NE 5.2mph /  8.4km/h 10.7mph /  17.2km/h 54% 0in /  0.0mm
16:39 56.7 °F /  13.7 °C 40.1 °F /  4.5 °C 30.2in /  1023.9hPa NE 5.3mph /  8.6km/h 12.7mph /  20.4km/h 54% 0in /  0.0mm
16:44 56.5 °F /  13.6 °C 39.9 °F /  4.4 °C 30.2in /  1023.9hPa NE 6.2mph /  10km/h 10.4mph /  16.7km/h 54% 0in /  0.0mm
16:49 56.5 °F /  13.6 °C 39.9 °F /  4.4 °C 30.2in /  1023.9hPa NE 6.2mph /  9.9km/h 11.8mph /  19km/h 54% 0in /  0.0mm
16:54 56.5 °F /  13.6 °C 39.9 °F /  4.4 °C 30.2in /  1024.1hPa NE 5.9mph /  9.5km/h 10.4mph /  16.7km/h 54% 0in /  0.0mm
16:59 56.5 °F /  13.6 °C 39.9 °F /  4.4 °C 30.2in /  1024.1hPa NE 6.1mph /  9.8km/h 11.8mph /  19km/h 54% 0in /  0.0mm
17:04 56.3 °F /  13.5 °C 39.9 °F /  4.4 °C 30.2in /  1024.1hPa NE 6.9mph /  11.1km/h 11.8mph /  19km/h 54% 0in /  0.0mm
17:09 56.3 °F /  13.5 °C 39.9 °F /  4.4 °C 30.2in /  1024.1hPa NE 7mph /  11.2km/h 10.4mph /  16.7km/h 54.2% 0in /  0.0mm
17:14 56.3 °F /  13.5 °C 40.3 °F /  4.6 °C 30.2in /  1024.1hPa NE 7.4mph /  11.9km/h 10.7mph /  17.2km/h 54.9% 0in /  0.0mm
17:19 56.1 °F /  13.4 °C 40.5 °F /  4.7 °C 30.2in /  1024.1hPa NE 7.2mph /  11.6km/h 9.2mph /  14.8km/h 55.4% 0in /  0.0mm
17:24 56.1 °F /  13.4 °C 40.6 °F /  4.8 °C 30.3in /  1024.3hPa NE 5.9mph /  9.5km/h 8.5mph /  13.7km/h 56% 0in /  0.0mm
17:29 56.1 °F /  13.4 °C 40.6 °F /  4.8 °C 30.3in /  1024.3hPa NE 5.7mph /  9.2km/h 8.5mph /  13.7km/h 56.3% 0in /  0.0mm
17:34 55.9 °F /  13.3 °C 40.8 °F /  4.9 °C 30.3in /  1024.3hPa Este 4.7mph /  7.6km/h 8.1mph /  13km/h 57% 0in /  0.0mm
17:39 55.8 °F /  13.2 °C 40.6 °F /  4.8 °C 30.3in /  1024.3hPa Este 4.7mph /  7.5km/h 8.1mph /  13km/h 57% 0in /  0.0mm
17:44 55.4 °F /  13 °C 40.6 °F /  4.8 °C 30.2in /  1024.1hPa Este 4.3mph /  6.9km/h 6.2mph /  10km/h 57.6% 0in /  0.0mm
17:49 55 °F /  12.8 °C 40.6 °F /  4.8 °C 30.2in /  1024.1hPa Este 4.1mph /  6.6km/h 5.2mph /  8.4km/h 58% 0in /  0.0mm
17:54 54.9 °F /  12.7 °C 40.6 °F /  4.8 °C 30.2in /  1024.1hPa Este 3.1mph /  5km/h 4.6mph /  7.4km/h 58.6% 0in /  0.0mm
17:59 54.9 °F /  12.7 °C 40.6 °F /  4.8 °C 30.2in /  1024.1hPa ESE 3mph /  4.8km/h 5.2mph /  8.4km/h 59% 0in /  0.0mm
18:04 54.7 °F /  12.6 °C 40.6 °F /  4.8 °C 30.2in /  1024.1hPa Este 2.4mph /  3.9km/h 4.6mph /  7.4km/h 59.3% 0in /  0.0mm
18:09 54.3 °F /  12.4 °C 40.8 °F /  4.9 °C 30.2in /  1024.2hPa ENE 2.4mph /  3.9km/h 4mph /  6.4km/h 60% 0in /  0.0mm
18:14 54.1 °F /  12.3 °C 40.6 °F /  4.8 °C 30.2in /  1024.2hPa ENE 2.4mph /  3.9km/h 4.6mph /  7.4km/h 60% 0in /  0.0mm
18:19 54 °F /  12.2 °C 40.8 °F /  4.9 °C 30.2in /  1024.2hPa ENE 2.5mph /  4km/h 4.7mph /  7.6km/h 60.6% 0in /  0.0mm
18:24 54 °F /  12.2 °C 40.8 °F /  4.9 °C 30.3in /  1024.3hPa ENE 2.9mph /  4.7km/h 4.6mph /  7.4km/h 61% 0in /  0.0mm
18:29 53.8 °F /  12.1 °C 40.6 °F /  4.8 °C 30.3in /  1024.3hPa ENE 2.9mph /  4.7km/h 6.2mph /  10km/h 61% 0in /  0.0mm
18:34 53.6 °F /  12 °C 40.6 °F /  4.8 °C 30.3in /  1024.3hPa NE 2.9mph /  4.7km/h 5.2mph /  8.4km/h 61.2% 0in /  0.0mm
18:39 53.4 °F /  11.9 °C 40.6 °F /  4.8 °C 30.3in /  1024.4hPa ENE 3mph /  4.9km/h 8.1mph /  13km/h 62% 0in /  0.0mm
18:44 53.2 °F /  11.8 °C 41 °F /  5 °C 30.3in /  1024.4hPa ENE 3.6mph /  5.8km/h 8.1mph /  13km/h 62.9% 0in /  0.0mm
18:49 53.1 °F /  11.7 °C 41 °F /  5 °C 30.3in /  1024.4hPa ENE 3.7mph /  5.9km/h 5.8mph /  9.3km/h 63.7% 0in /  0.0mm
18:54 52.5 °F /  11.4 °C 41 °F /  5 °C 30.3in /  1024.6hPa ENE 4mph /  6.4km/h 4.6mph /  7.4km/h 64.7% 0in /  0.0mm
18:59 52.3 °F /  11.3 °C 41.2 °F /  5.1 °C 30.3in /  1024.6hPa ENE 3.7mph /  6km/h 3.6mph /  5.8km/h 65.6% 0in /  0.0mm
19:04 52.2 °F /  11.2 °C 41.4 °F /  5.2 °C 30.3in /  1024.6hPa ENE 2.4mph /  3.9km/h 3.6mph /  5.8km/h 66.7% 0in /  0.0mm
19:09 51.8 °F /  11 °C 41.5 °F /  5.3 °C 30.3in /  1024.7hPa NE 2.4mph /  3.9km/h 4.6mph /  7.4km/h 67.6% 0in /  0.0mm
19:14 51.6 °F /  10.9 °C 41.5 °F /  5.3 °C 30.3in /  1024.7hPa NE 2.4mph /  3.9km/h 5.2mph /  8.4km/h 68.6% 0in /  0.0mm
19:19 51.4 °F /  10.8 °C 41.9 °F /  5.5 °C 30.3in /  1024.7hPa NE 2.5mph /  4.1km/h 5.9mph /  9.5km/h 69.8% 0in /  0.0mm
19:24 51.3 °F /  10.7 °C 41.9 °F /  5.5 °C 30.3in /  1024.7hPa NE 3.6mph /  5.8km/h 4.6mph /  7.4km/h 70.4% 0in /  0.0mm
19:29 51.1 °F /  10.6 °C 42.1 °F /  5.6 °C 30.3in /  1024.7hPa NE 3.5mph /  5.6km/h 4.6mph /  7.4km/h 71% 0in /  0.0mm
19:34 51.1 °F /  10.6 °C 42.3 °F /  5.7 °C 30.3in /  1024.7hPa NNE 2.9mph /  4.7km/h 4.6mph /  7.4km/h 71.8% 0in /  0.0mm
19:39 50.7 °F /  10.4 °C 42.1 °F /  5.6 °C 30.3in /  1024.8hPa NNE 2.9mph /  4.7km/h 4.6mph /  7.4km/h 72.1% 0in /  0.0mm
19:44 50.7 °F /  10.4 °C 42.3 °F /  5.7 °C 30.3in /  1024.8hPa NE 3.1mph /  5km/h 4.6mph /  7.4km/h 73% 0in /  0.0mm
19:49 50.5 °F /  10.3 °C 42.4 °F /  5.8 °C 30.3in /  1024.8hPa NE 3mph /  4.9km/h 3.5mph /  5.6km/h 73.7% 0in /  0.0mm
19:54 50.5 °F /  10.3 °C 42.6 °F /  5.9 °C 30.3in /  1024.9hPa North 2.9mph /  4.7km/h 3.6mph /  5.8km/h 74% 0in /  0.0mm
19:59 50.4 °F /  10.2 °C 42.3 °F /  5.7 °C 30.3in /  1024.9hPa North 2.8mph /  4.5km/h 4.6mph /  7.4km/h 74% 0in /  0.0mm
20:04 50 °F /  10 °C 42.1 °F /  5.6 °C 30.3in /  1024.9hPa NNO 2.4mph /  3.9km/h 2.4mph /  3.9km/h 74% 0in /  0.0mm
20:09 49.8 °F /  9.9 °C 42.1 °F /  5.6 °C 30.3in /  1024.9hPa NNO 2.2mph /  3.6km/h 2.4mph /  3.9km/h 74.5% 0in /  0.0mm
20:14 49.6 °F /  9.8 °C 42.1 °F /  5.6 °C 30.3in /  1024.8hPa NNO 1.4mph /  2.3km/h 2.9mph /  4.7km/h 75% 0in /  0.0mm
20:19 49.5 °F /  9.7 °C 41.9 °F /  5.5 °C 30.3in /  1024.8hPa NNO 1.5mph /  2.4km/h 2.9mph /  4.7km/h 75% 0in /  0.0mm
20:24 49.5 °F /  9.7 °C 42.1 °F /  5.6 °C 30.3in /  1024.8hPa NNO 1.8mph /  2.9km/h 2.9mph /  4.7km/h 75.5% 0in /  0.0mm
20:29 49.3 °F /  9.6 °C 42.1 °F /  5.6 °C 30.3in /  1024.8hPa NNO 1.7mph /  2.8km/h 2.4mph /  3.9km/h 76% 0in /  0.0mm
20:34 49.3 °F /  9.6 °C 42.3 °F /  5.7 °C 30.3in /  1024.8hPa NNO 1.4mph /  2.3km/h 3.6mph /  5.8km/h 76.7% 0in /  0.0mm
20:39 49.5 °F /  9.7 °C 42.4 °F /  5.8 °C 30.3in /  1024.8hPa North 1.6mph /  2.5km/h 4.6mph /  7.4km/h 77% 0in /  0.0mm
20:44 49.5 °F /  9.7 °C 42.4 °F /  5.8 °C 30.3in /  1024.8hPa North 2.4mph /  3.9km/h 4.6mph /  7.4km/h 77% 0in /  0.0mm
20:49 49.5 °F /  9.7 °C 42.6 °F /  5.9 °C 30.3in /  1024.8hPa NNE 2.5mph /  4km/h 3.6mph /  5.8km/h 77.3% 0in /  0.0mm
20:54 49.6 °F /  9.8 °C 42.8 °F /  6 °C 30.3in /  1024.8hPa NNE 2.9mph /  4.7km/h 4.6mph /  7.4km/h 77.6% 0in /  0.0mm
20:59 49.6 °F /  9.8 °C 43.2 °F /  6.2 °C 30.3in /  1024.7hPa NNE 2.9mph /  4.7km/h 4.6mph /  7.4km/h 78% 0in /  0.0mm
21:04 49.5 °F /  9.7 °C 43 °F /  6.1 °C 30.3in /  1024.7hPa NNE 3.1mph /  5km/h 4.6mph /  7.4km/h 78% 0in /  0.0mm
21:09 49.5 °F /  9.7 °C 42.8 °F /  6 °C 30.3in /  1024.7hPa NNE 3mph /  4.8km/h 3.6mph /  5.8km/h 77.8% 0in /  0.0mm
21:14 49.5 °F /  9.7 °C 42.8 °F /  6 °C 30.3in /  1024.7hPa NE 2.4mph /  3.9km/h 3.6mph /  5.8km/h 78% 0in /  0.0mm
21:19 49.3 °F /  9.6 °C 42.6 °F /  5.9 °C 30.3in /  1024.7hPa NE 2.4mph /  3.8km/h 3.5mph /  5.6km/h 78% 0in /  0.0mm
21:24 49.1 °F /  9.5 °C 42.6 °F /  5.9 °C 30.3in /  1024.7hPa NE 2mph /  3.2km/h 3.5mph /  5.6km/h 78% 0in /  0.0mm
21:29 48.9 °F /  9.4 °C 42.4 °F /  5.8 °C 30.3in /  1024.7hPa North 2mph /  3.2km/h 3.6mph /  5.8km/h 78% 0in /  0.0mm
21:34 48.7 °F /  9.3 °C 42.3 °F /  5.7 °C 30.3in /  1024.7hPa ONO 2mph /  3.2km/h 4.7mph /  7.6km/h 78% 0in /  0.0mm
21:39 48.4 °F /  9.1 °C 41.9 °F /  5.5 °C 30.3in /  1024.8hPa Oeste 2.1mph /  3.4km/h 4.6mph /  7.4km/h 78.3% 0in /  0.0mm
21:44 48 °F /  8.9 °C 41.7 °F /  5.4 °C 30.3in /  1024.8hPa Oeste 2.9mph /  4.7km/h 4.6mph /  7.4km/h 79% 0in /  0.0mm
21:49 47.8 °F /  8.8 °C 41.7 °F /  5.4 °C 30.3in /  1024.8hPa OSO 2.9mph /  4.7km/h 4.6mph /  7.4km/h 79.4% 0in /  0.0mm
21:54 47.8 °F /  8.8 °C 42.1 °F /  5.6 °C 30.3in /  1024.8hPa SO 2.9mph /  4.7km/h 5.2mph /  8.4km/h 80% 0in /  0.0mm
21:59 47.8 °F /  8.8 °C 42.3 °F /  5.7 °C 30.3in /  1024.7hPa SSO 2.9mph /  4.7km/h 4.6mph /  7.4km/h 80.9% 0in /  0.0mm
22:04 47.8 °F /  8.8 °C 42.4 °F /  5.8 °C 30.3in /  1024.7hPa SSE 3.1mph /  5km/h 4.6mph /  7.4km/h 81% 0in /  0.0mm
22:09 48 °F /  8.9 °C 42.1 °F /  5.6 °C 30.3in /  1024.9hPa SSE 3.1mph /  5km/h 4.6mph /  7.4km/h 80.1% 0in /  0.0mm
22:14 47.8 °F /  8.8 °C 42.1 °F /  5.6 °C 30.3in /  1024.9hPa SSE 3.1mph /  5km/h 5.8mph /  9.3km/h 80% 0in /  0.0mm
22:19 47.7 °F /  8.7 °C 41.5 °F /  5.3 °C 30.3in /  1024.9hPa SSE 3.1mph /  5km/h 4.7mph /  7.6km/h 79.4% 0in /  0.0mm
22:24 47.1 °F /  8.4 °C 41.4 °F /  5.2 °C 30.3in /  1024.9hPa SSE 3.1mph /  5km/h 4.7mph /  7.6km/h 80% 0in /  0.0mm
22:29 46.8 °F /  8.2 °C 41 °F /  5 °C 30.3in /  1024.9hPa SSE 3mph /  4.9km/h 4.7mph /  7.6km/h 80% 0in /  0.0mm
22:34 46.6 °F /  8.1 °C 40.8 °F /  4.9 °C 30.3in /  1024.9hPa ESE 2.9mph /  4.7km/h 5.4mph /  8.7km/h 80% 0in /  0.0mm
22:39 46.2 °F /  7.9 °C 40.1 °F /  4.5 °C 30.3in /  1025.1hPa SE 2.9mph /  4.7km/h 6.2mph /  10km/h 79.3% 0in /  0.0mm
22:44 45.5 °F /  7.5 °C 39.7 °F /  4.3 °C 30.3in /  1025.1hPa SE 3.1mph /  5km/h 6.2mph /  10km/h 79.8% 0in /  0.0mm
22:49 45.3 °F /  7.4 °C 39.7 °F /  4.3 °C 30.3in /  1025.1hPa SSE 3.2mph /  5.2km/h 6.2mph /  10km/h 80.8% 0in /  0.0mm
22:54 45.1 °F /  7.3 °C 39.7 °F /  4.3 °C 30.3in /  1025.2hPa SSE 4mph /  6.4km/h 6.2mph /  10km/h 81% 0in /  0.0mm
22:59 45.3 °F /  7.4 °C 39.7 °F /  4.3 °C 30.3in /  1025.2hPa Sur 4mph /  6.5km/h 6.9mph /  11.1km/h 81% 0in /  0.0mm
23:04 45.5 °F /  7.5 °C 39.9 °F /  4.4 °C 30.3in /  1025.2hPa SSO 4.3mph /  6.9km/h 5.8mph /  9.3km/h 81% 0in /  0.0mm
23:09 45.7 °F /  7.6 °C 40.1 °F /  4.5 °C 30.3in /  1025.2hPa SSE 4.3mph /  6.9km/h 5.8mph /  9.3km/h 80.9% 0in /  0.0mm
23:14 45.9 °F /  7.7 °C 39.9 °F /  4.4 °C 30.3in /  1025.2hPa Sur 4mph /  6.4km/h 6.4mph /  10.3km/h 80% 0in /  0.0mm
23:19 46 °F /  7.8 °C 40.1 °F /  4.5 °C 30.3in /  1025.2hPa SSO 4mph /  6.5km/h 6.9mph /  11.1km/h 80% 0in /  0.0mm
23:24 46 °F /  7.8 °C 40.3 °F /  4.6 °C 30.3in /  1025.2hPa SSO 4.3mph /  6.9km/h 6.9mph /  11.1km/h 80% 0in /  0.0mm
23:29 46.2 °F /  7.9 °C 40.1 °F /  4.5 °C 30.3in /  1025.2hPa SSO 4.3mph /  6.9km/h 5.9mph /  9.5km/h 79.2% 0in /  0.0mm
23:34 46.2 °F /  7.9 °C 40.1 °F /  4.5 °C 30.3in /  1025.2hPa SO 4.3mph /  6.9km/h 6.9mph /  11.1km/h 79% 0in /  0.0mm
23:39 46.2 °F /  7.9 °C 40.1 °F /  4.5 °C 30.3in /  1025.2hPa SO 4.3mph /  6.9km/h 5.8mph /  9.3km/h 79% 0in /  0.0mm
23:44 46.4 °F /  8 °C 40.3 °F /  4.6 °C 30.3in /  1025.2hPa SO 4mph /  6.4km/h 6.9mph /  11.1km/h 79% 0in /  0.0mm
23:49 46.4 °F /  8 °C 40.3 °F /  4.6 °C 30.3in /  1025.2hPa SO 3.9mph /  6.2km/h 4.7mph /  7.6km/h 79% 0in /  0.0mm
23:54 46.4 °F /  8 °C 40.3 °F /  4.6 °C 30.3in /  1025.2hPa SSO 3.1mph /  5km/h 5.9mph /  9.5km/h 79% 0in /  0.0mm
23:59 46.4 °F /  8 °C 40.1 °F /  4.5 °C 30.3in /  1025.2hPa SO 3.2mph /  5.1km/h 6.4mph /  10.3km/h 78.8% 0in /  0.0mm
Murcia-Puente Tocinos, Espa?a
Compliments of Weather Underground - 3 mb

La estación de MeteoMurcia.com, publica sus datos en los siguientes proyectos:

Weather Underground PWS IMURCIAP2 Meteoclimatic www.awekas.at

W3Counter
Web Analytics